Fairlawn, Virginia
Current Conditions -  °F | °C
As of 7:35 PM on Monday 22 Dec 2014 (Local Time) from KPSK Reporting Station
Haze Haze  
Wind Chill: 31°   Ceiling: 300
Heat Index: 35°   Visibility: 1.7mi
Dew Point: 35°   Wind: 5mph
Humidity: 100%   Direction: 80°E
Pressure: 30.06"   Gusts: NA
Location:  37.1746°N, 80.6425°W
Report Text: KPSK 230035Z AUTO 08004KT 1 3/4SM BR OVC003 02/02 A3006 RMK AO2 T00170017
Loading
Personal Weather Stations






























Interactive Weather Map New forecast layout! Learn more

10-Day Weather Forecast

Advertisements
Track Severe Weather on mobile